createdAt,value
2018-06-02T00:00:37.289Z,17.60
2018-06-02T00:03:05.654Z,17.70
2018-06-02T00:05:33.960Z,17.70
2018-06-02T00:08:02.991Z,17.50
2018-06-02T00:10:31.264Z,17.60
2018-06-02T00:12:59.585Z,17.60
2018-06-02T00:15:27.877Z,17.60
2018-06-02T00:17:56.197Z,17.60
2018-06-02T00:20:24.466Z,17.40
2018-06-02T00:22:52.017Z,17.40
2018-06-02T00:25:19.557Z,17.60
2018-06-02T00:27:47.825Z,17.40
2018-06-02T00:30:16.143Z,17.40
2018-06-02T00:32:44.400Z,17.50
2018-06-02T00:35:12.737Z,17.50
2018-06-02T00:37:41.001Z,17.50
2018-06-02T00:40:09.296Z,17.50
2018-06-02T00:42:38.598Z,17.50
2018-06-02T00:45:08.185Z,17.40
2018-06-02T00:47:37.157Z,17.50
2018-06-02T00:50:05.417Z,17.50
2018-06-02T00:52:35.004Z,17.40
2018-06-02T00:55:10.236Z,17.40
2018-06-02T00:57:38.533Z,17.40
2018-06-02T01:00:07.469Z,17.40
2018-06-02T01:02:38.747Z,17.50
2018-06-02T01:05:07.006Z,17.50
2018-06-02T01:07:35.268Z,17.70
2018-06-02T01:10:04.778Z,17.60
2018-06-02T01:12:34.069Z,17.60
2018-06-02T01:15:02.772Z,17.60
2018-06-02T01:17:31.066Z,17.60
2018-06-02T01:19:59.357Z,17.70
2018-06-02T01:22:27.624Z,17.50
2018-06-02T01:24:55.921Z,17.60
2018-06-02T01:27:24.189Z,17.70
2018-06-02T01:29:52.501Z,17.80
2018-06-02T01:32:20.784Z,17.50
2018-06-02T01:34:49.053Z,17.40
2018-06-02T01:37:17.376Z,17.40
2018-06-02T01:39:45.688Z,17.50
2018-06-02T01:42:13.991Z,17.40
2018-06-02T01:44:42.270Z,17.50
2018-06-02T01:47:10.581Z,17.60
2018-06-02T01:49:38.901Z,17.60
2018-06-02T01:52:08.060Z,17.60
2018-06-02T01:54:36.547Z,17.60
2018-06-02T01:57:04.809Z,17.70
2018-06-02T01:59:34.201Z,17.70
2018-06-02T02:02:03.716Z,17.70
2018-06-02T02:04:32.610Z,17.70
2018-06-02T02:07:00.941Z,17.70
2018-06-02T02:09:29.238Z,17.70
2018-06-02T02:11:57.541Z,17.60
2018-06-02T02:14:25.822Z,17.50
2018-06-02T02:16:54.135Z,17.50
2018-06-02T02:19:22.413Z,17.60
2018-06-02T02:21:50.729Z,17.70
2018-06-02T02:24:19.007Z,17.80
2018-06-02T02:26:47.314Z,17.80
2018-06-02T02:29:15.624Z,17.80
2018-06-02T02:31:43.894Z,17.80
2018-06-02T02:34:12.150Z,17.80
2018-06-02T02:36:40.451Z,17.80
2018-06-02T02:39:08.722Z,17.90
2018-06-02T02:41:38.066Z,17.90
2018-06-02T02:44:06.692Z,17.90
2018-06-02T02:46:35.005Z,17.90
2018-06-02T02:49:04.538Z,17.90
2018-06-02T02:51:33.154Z,17.90
2018-06-02T02:54:03.761Z,17.80
2018-06-02T02:56:33.046Z,17.80
2018-06-02T02:59:01.359Z,17.80
2018-06-02T03:01:29.641Z,17.80
2018-06-02T03:03:58.848Z,17.80
2018-06-02T03:06:27.161Z,17.80
2018-06-02T03:08:55.430Z,17.90
2018-06-02T03:11:23.728Z,17.90
2018-06-02T03:13:51.989Z,17.90
2018-06-02T03:16:20.273Z,17.90
2018-06-02T03:18:48.578Z,17.80
2018-06-02T03:21:16.850Z,17.90
2018-06-02T03:23:45.148Z,17.90
2018-06-02T03:26:13.439Z,17.90
2018-06-02T03:28:41.749Z,17.90
2018-06-02T03:31:10.062Z,17.80
2018-06-02T03:33:38.335Z,17.80
2018-06-02T03:36:07.855Z,17.80
2018-06-02T03:38:36.919Z,17.80
2018-06-02T03:41:05.210Z,17.90
2018-06-02T03:43:34.727Z,17.90
2018-06-02T03:46:04.151Z,17.90
2018-06-02T03:48:33.285Z,17.90
2018-06-02T03:51:01.645Z,17.90
2018-06-02T03:53:30.770Z,17.80
2018-06-02T03:55:58.309Z,17.80
2018-06-02T03:58:25.833Z,17.90
2018-06-02T04:00:54.139Z,17.90
2018-06-02T04:03:22.401Z,17.90
2018-06-02T04:05:50.653Z,17.80
2018-06-02T04:08:18.938Z,17.80
2018-06-02T04:10:47.213Z,17.80
2018-06-02T04:13:15.510Z,17.80
2018-06-02T04:15:43.785Z,17.80
2018-06-02T04:18:12.121Z,17.90
2018-06-02T04:20:40.421Z,17.90
2018-06-02T04:23:08.681Z,18.00
2018-06-02T04:25:38.553Z,17.90
2018-06-02T04:28:08.723Z,17.90
2018-06-02T04:30:37.919Z,17.90
2018-06-02T04:33:07.086Z,18.00
2018-06-02T04:35:35.390Z,17.90
2018-06-02T04:38:02.907Z,17.90
2018-06-02T04:40:31.181Z,17.90
2018-06-02T04:42:59.473Z,17.90
2018-06-02T04:45:27.759Z,17.90
2018-06-02T04:47:56.042Z,18.00
2018-06-02T04:50:24.300Z,17.90
2018-06-02T04:52:52.594Z,17.90
2018-06-02T04:55:20.860Z,18.00
2018-06-02T04:57:49.151Z,17.90
2018-06-02T05:00:17.422Z,18.00
2018-06-02T05:02:45.719Z,18.00
2018-06-02T05:05:13.218Z,17.90
2018-06-02T05:07:41.490Z,18.10
2018-06-02T05:10:09.790Z,18.00
2018-06-02T05:12:39.388Z,18.10
2018-06-02T05:15:08.830Z,18.10
2018-06-02T05:17:38.077Z,18.20
2018-06-02T05:20:06.386Z,18.20
2018-06-02T05:22:34.656Z,18.30
2018-06-02T05:25:02.958Z,18.40
2018-06-02T05:27:31.268Z,18.40
2018-06-02T05:29:59.539Z,18.30
2018-06-02T05:32:27.838Z,18.30
2018-06-02T05:34:56.109Z,18.30
2018-06-02T05:37:24.409Z,18.30
2018-06-02T05:39:52.749Z,18.40
2018-06-02T05:42:21.057Z,18.40
2018-06-02T05:44:49.324Z,18.40
2018-06-02T05:47:17.611Z,18.40
2018-06-02T05:49:45.926Z,18.50
2018-06-02T05:52:14.228Z,18.50
2018-06-02T05:54:42.542Z,18.50
2018-06-02T05:57:10.801Z,18.50
2018-06-02T05:59:39.100Z,18.40
2018-06-02T06:02:07.373Z,18.40
2018-06-02T06:04:34.908Z,18.40
2018-06-02T06:07:04.291Z,18.40
2018-06-02T06:09:33.764Z,18.40
2018-06-02T06:12:02.436Z,18.30
2018-06-02T06:14:30.721Z,18.30
2018-06-02T06:16:58.980Z,18.40
2018-06-02T06:19:27.299Z,18.30
2018-06-02T06:21:55.579Z,18.30
2018-06-02T06:24:23.883Z,18.30
2018-06-02T06:26:52.162Z,18.20
2018-06-02T06:29:20.447Z,18.30
2018-06-02T06:31:48.726Z,18.40
2018-06-02T06:34:17.017Z,18.30
2018-06-02T06:36:45.291Z,18.30
2018-06-02T06:39:13.941Z,18.30
2018-06-02T06:41:42.218Z,18.30
2018-06-02T06:44:12.459Z,18.20
2018-06-02T06:46:40.734Z,18.30
2018-06-02T06:49:09.022Z,18.40
2018-06-02T06:51:37.325Z,18.40
2018-06-02T06:54:05.602Z,18.50
2018-06-02T06:56:39.713Z,18.50
2018-06-02T06:59:08.549Z,18.30
2018-06-02T07:01:38.439Z,18.40
2018-06-02T07:04:06.746Z,18.30
2018-06-02T07:06:35.010Z,18.40
2018-06-02T07:09:03.996Z,18.20
2018-06-02T07:11:33.343Z,18.10
2018-06-02T07:14:01.649Z,18.30
2018-06-02T07:16:30.802Z,18.20
2018-06-02T07:18:59.090Z,18.20
2018-06-02T07:21:27.346Z,18.30
2018-06-02T07:23:55.650Z,18.30
2018-06-02T07:26:23.963Z,18.30
2018-06-02T07:28:52.233Z,18.40
2018-06-02T07:31:20.542Z,18.40
2018-06-02T07:33:48.814Z,18.40
2018-06-02T07:36:17.084Z,18.30
2018-06-02T07:38:45.382Z,18.30
2018-06-02T07:41:13.696Z,18.30
2018-06-02T07:43:41.995Z,18.30
2018-06-02T07:46:10.304Z,18.30
2018-06-02T07:48:40.034Z,18.30
2018-06-02T07:51:09.280Z,18.20
2018-06-02T07:53:38.680Z,18.30
2018-06-02T07:56:07.634Z,18.30
2018-06-02T07:58:35.927Z,18.10
2018-06-02T08:01:04.217Z,18.20
2018-06-02T08:03:33.552Z,18.20
2018-06-02T08:06:02.681Z,18.30
2018-06-02T08:08:31.003Z,18.20
2018-06-02T08:10:59.274Z,18.20
2018-06-02T08:13:27.961Z,18.20
2018-06-02T08:15:56.285Z,18.30
2018-06-02T08:18:24.556Z,18.40
2018-06-02T08:20:52.824Z,18.40
2018-06-02T08:23:21.129Z,18.40
2018-06-02T08:25:49.402Z,18.50
2018-06-02T08:28:17.742Z,18.50
2018-06-02T08:30:46.001Z,18.40
2018-06-02T08:33:14.316Z,18.40
2018-06-02T08:35:42.591Z,18.40
2018-06-02T08:38:10.924Z,18.40
2018-06-02T08:40:39.200Z,18.50
2018-06-02T08:43:08.723Z,18.50
2018-06-02T08:45:38.672Z,18.60
2018-06-02T08:48:07.714Z,18.70
2018-06-02T08:50:36.059Z,18.70
2018-06-02T08:53:04.367Z,18.80
2018-06-02T08:55:33.737Z,18.90
2018-06-02T08:58:02.450Z,18.90
2018-06-02T09:00:31.311Z,19.00
2018-06-02T09:02:59.640Z,19.00
2018-06-02T09:05:27.947Z,19.10
2018-06-02T09:07:56.224Z,19.10
2018-06-02T09:10:24.496Z,19.10
2018-06-02T09:12:52.824Z,19.20
2018-06-02T09:15:21.273Z,19.30
2018-06-02T09:17:49.615Z,19.20
2018-06-02T09:20:17.918Z,19.40
2018-06-02T09:22:46.190Z,19.30
2018-06-02T09:25:14.494Z,19.40
2018-06-02T09:27:42.775Z,19.40
2018-06-02T09:30:11.052Z,19.50
2018-06-02T09:32:39.375Z,19.60
2018-06-02T09:35:08.439Z,19.70
2018-06-02T09:37:36.719Z,19.70
2018-06-02T09:40:05.010Z,19.70
2018-06-02T09:42:34.410Z,19.70
2018-06-02T09:45:03.668Z,19.80
2018-06-02T09:47:32.424Z,19.80
2018-06-02T09:50:00.692Z,19.80
2018-06-02T09:52:29.007Z,19.80
2018-06-02T09:54:57.310Z,19.90
2018-06-02T09:57:25.586Z,19.90
2018-06-02T09:59:53.882Z,19.90
2018-06-02T10:02:22.162Z,20.00
2018-06-02T10:04:50.473Z,20.10
2018-06-02T10:07:18.728Z,20.20
2018-06-02T10:09:46.998Z,20.30
2018-06-02T10:12:15.346Z,20.40
2018-06-02T10:14:43.606Z,20.40
2018-06-02T10:17:11.909Z,20.30
2018-06-02T10:19:40.171Z,20.40
2018-06-02T10:22:09.495Z,20.50
2018-06-02T10:24:38.786Z,20.60
2018-06-02T10:27:06.330Z,20.60
2018-06-02T10:29:34.645Z,20.80
2018-06-02T10:32:02.943Z,20.60
2018-06-02T10:34:31.218Z,20.50
2018-06-02T10:36:59.523Z,20.40
2018-06-02T10:39:27.786Z,20.50
2018-06-02T10:41:56.067Z,20.50
2018-06-02T10:44:24.383Z,20.60
2018-06-02T10:46:52.658Z,20.70
2018-06-02T10:49:20.930Z,20.80
2018-06-02T10:51:49.229Z,20.80
2018-06-02T10:54:17.482Z,20.90
2018-06-02T10:56:45.745Z,20.90
2018-06-02T10:59:14.081Z,20.80
2018-06-02T11:01:42.402Z,20.70
2018-06-02T11:04:10.676Z,20.60
2018-06-02T11:06:38.179Z,20.60
2018-06-02T11:09:06.490Z,20.60
2018-06-02T11:11:34.748Z,20.60
2018-06-02T11:14:03.064Z,20.60
2018-06-02T11:16:31.338Z,20.70
2018-06-02T11:18:59.618Z,20.70
2018-06-02T11:21:27.951Z,20.60
2018-06-02T11:23:56.231Z,20.70
2018-06-02T11:26:24.506Z,20.60
2018-06-02T11:28:52.794Z,20.60
2018-06-02T11:31:21.059Z,20.60
2018-06-02T11:33:49.368Z,20.70
2018-06-02T11:36:17.658Z,20.70
2018-06-02T11:38:45.973Z,20.70
2018-06-02T11:41:14.233Z,20.60
2018-06-02T11:43:42.527Z,20.70
2018-06-02T11:46:10.810Z,20.70
2018-06-02T11:48:45.668Z,20.70
2018-06-02T11:51:13.976Z,20.60
2018-06-02T11:53:42.235Z,20.60
2018-06-02T11:56:09.725Z,20.60
2018-06-02T11:58:39.076Z,20.60
2018-06-02T12:01:08.390Z,20.70
2018-06-02T12:03:36.690Z,20.70
2018-06-02T12:06:05.006Z,20.70
2018-06-02T12:08:34.600Z,20.90
2018-06-02T12:11:02.873Z,20.90
2018-06-02T12:13:31.161Z,21.00
2018-06-02T12:15:59.413Z,20.90
2018-06-02T12:18:27.702Z,20.90
2018-06-02T12:23:57.203Z,20.90
2018-06-02T12:26:25.462Z,20.90
2018-06-02T12:28:53.764Z,21.10
2018-06-02T12:31:22.050Z,21.10
2018-06-02T12:33:50.310Z,21.20
2018-06-02T12:36:18.609Z,21.20
2018-06-02T12:38:47.002Z,21.20
2018-06-02T12:41:15.292Z,21.30
2018-06-02T12:43:43.570Z,21.30
2018-06-02T12:46:11.861Z,21.50
2018-06-02T12:48:39.368Z,21.50
2018-06-02T12:51:08.096Z,21.60
2018-06-02T12:53:36.386Z,21.70
2018-06-02T12:56:04.649Z,21.60
2018-06-02T12:58:33.888Z,21.60
2018-06-02T13:01:02.648Z,21.50
2018-06-02T13:03:30.938Z,21.40
2018-06-02T13:05:59.243Z,21.10
2018-06-02T13:08:27.518Z,21.00
2018-06-02T13:10:55.841Z,21.10
2018-06-02T13:13:24.122Z,21.20
2018-06-02T13:15:52.376Z,21.10
2018-06-02T13:18:20.666Z,21.20
2018-06-02T13:20:48.928Z,21.00
2018-06-02T13:23:17.220Z,20.90
2018-06-02T13:25:44.717Z,20.90
2018-06-02T13:28:13.008Z,21.20
2018-06-02T13:30:41.293Z,21.30
2018-06-02T13:33:09.585Z,21.10
2018-06-02T13:35:38.734Z,21.10
2018-06-02T13:38:07.664Z,21.20
2018-06-02T13:40:35.939Z,21.20
2018-06-02T13:43:04.240Z,21.20
2018-06-02T13:45:32.578Z,21.30
2018-06-02T13:48:00.869Z,21.40
2018-06-02T13:50:29.162Z,21.40
2018-06-02T13:52:57.461Z,21.50
2018-06-02T13:55:26.677Z,21.40
2018-06-02T13:57:54.993Z,21.60
2018-06-02T14:00:23.288Z,22.10
2018-06-02T14:02:51.545Z,22.20
2018-06-02T14:05:19.809Z,22.30
2018-06-02T14:07:48.138Z,22.40
2018-06-02T14:10:16.393Z,22.40
2018-06-02T14:12:44.690Z,22.50
2018-06-02T14:15:12.956Z,22.50
2018-06-02T14:17:41.213Z,22.60
2018-06-02T14:20:09.639Z,22.60
2018-06-02T14:22:38.999Z,22.50
2018-06-02T14:25:07.275Z,22.60
2018-06-02T14:27:35.550Z,22.60
2018-06-02T14:30:05.060Z,22.70
2018-06-02T14:32:34.649Z,22.50
2018-06-02T14:35:02.542Z,22.50
2018-06-02T14:37:30.827Z,22.50
2018-06-02T14:39:59.081Z,22.30
2018-06-02T14:42:27.372Z,22.20
2018-06-02T14:44:55.674Z,22.20
2018-06-02T14:47:23.936Z,22.20
2018-06-02T14:49:52.257Z,22.20
2018-06-02T14:52:20.549Z,22.10
2018-06-02T14:54:48.810Z,22.00
2018-06-02T14:57:17.123Z,22.00
2018-06-02T14:59:45.386Z,21.70
2018-06-02T15:02:13.681Z,21.70
2018-06-02T15:04:41.947Z,21.70
2018-06-02T15:07:09.486Z,21.70
2018-06-02T15:09:38.578Z,21.60
2018-06-02T15:12:08.066Z,21.60
2018-06-02T15:14:36.458Z,21.60
2018-06-02T15:17:04.749Z,21.60
2018-06-02T15:19:33.010Z,21.60
2018-06-02T15:22:01.305Z,21.60
2018-06-02T15:24:29.586Z,21.40
2018-06-02T15:26:57.862Z,21.30
2018-06-02T15:29:26.153Z,21.20
2018-06-02T15:31:54.435Z,21.20
2018-06-02T15:34:22.735Z,21.20
2018-06-02T15:36:51.043Z,21.30
2018-06-02T15:39:19.329Z,21.10
2018-06-02T15:41:47.603Z,21.10
2018-06-02T15:44:15.895Z,21.20
2018-06-02T15:46:44.194Z,21.20
2018-06-02T15:49:13.433Z,21.50
2018-06-02T15:51:41.715Z,21.40
2018-06-02T15:54:09.997Z,21.50
2018-06-02T15:56:39.110Z,21.60
2018-06-02T15:59:09.299Z,21.40
2018-06-02T16:01:37.922Z,21.40
2018-06-02T16:04:06.183Z,21.40
2018-06-02T16:06:34.491Z,21.40
2018-06-02T16:09:05.574Z,21.40
2018-06-02T16:11:35.151Z,21.50
2018-06-02T16:14:04.658Z,21.60
2018-06-02T16:16:32.561Z,21.60
2018-06-02T16:19:00.857Z,21.90
2018-06-02T16:21:29.119Z,21.90
2018-06-02T16:23:57.405Z,22.00
2018-06-02T16:26:25.667Z,22.00
2018-06-02T16:28:53.966Z,22.00
2018-06-02T16:31:22.300Z,21.90
2018-06-02T16:33:50.585Z,22.00
2018-06-02T16:36:18.101Z,21.90
2018-06-02T16:38:46.405Z,21.70
2018-06-02T16:41:14.671Z,21.90
2018-06-02T16:43:42.977Z,21.90
2018-06-02T16:46:11.310Z,22.00
2018-06-02T16:48:39.601Z,22.00
2018-06-02T16:51:08.933Z,21.80
2018-06-02T16:53:37.221Z,21.80
2018-06-02T16:56:05.525Z,21.80
2018-06-02T16:58:35.137Z,21.90
2018-06-02T17:01:09.889Z,21.80
2018-06-02T17:03:38.202Z,21.80
2018-06-02T17:06:09.556Z,21.80
2018-06-02T17:08:39.021Z,21.70
2018-06-02T17:11:11.691Z,21.60
2018-06-02T17:13:40.637Z,21.60
2018-06-02T17:16:10.205Z,21.60
2018-06-02T17:18:38.719Z,21.60
2018-06-02T17:21:14.618Z,21.50
2018-06-02T17:23:42.917Z,21.40
2018-06-02T17:26:11.192Z,21.50
2018-06-02T17:28:39.501Z,21.50
2018-06-02T17:31:08.602Z,21.50
2018-06-02T17:33:38.531Z,21.50
2018-06-02T17:36:06.860Z,21.60
2018-06-02T17:38:36.532Z,21.60
2018-06-02T17:41:04.807Z,21.70
2018-06-02T17:43:33.460Z,21.60
2018-06-02T17:46:01.758Z,21.50
2018-06-02T17:48:30.067Z,21.60
2018-06-02T17:50:58.340Z,21.60
2018-06-02T17:53:29.730Z,21.60
2018-06-02T17:55:59.223Z,21.50
2018-06-02T17:58:27.534Z,21.50
2018-06-02T18:00:55.840Z,21.40
2018-06-02T18:03:24.116Z,21.40
2018-06-02T18:05:52.393Z,21.40
2018-06-02T18:08:20.662Z,21.40
2018-06-02T18:10:48.971Z,21.40
2018-06-02T18:13:17.276Z,21.40
2018-06-02T18:15:45.589Z,21.40
2018-06-02T18:18:13.863Z,21.40
2018-06-02T18:20:42.138Z,21.40
2018-06-02T18:23:10.458Z,21.30
2018-06-02T18:25:40.033Z,21.30
2018-06-02T18:28:08.508Z,21.30
2018-06-02T18:30:36.781Z,21.30
2018-06-02T18:33:05.070Z,21.20
2018-06-02T18:35:33.981Z,21.20
2018-06-02T18:38:02.309Z,21.20
2018-06-02T18:40:30.577Z,21.10
2018-06-02T18:42:58.867Z,21.20
2018-06-02T18:45:26.390Z,21.10
2018-06-02T18:47:54.711Z,21.10
2018-06-02T18:50:23.005Z,21.10
2018-06-02T18:52:51.280Z,21.10
2018-06-02T18:55:19.574Z,21.10
2018-06-02T18:57:47.846Z,21.10
2018-06-02T19:00:16.153Z,21.20
2018-06-02T19:02:44.457Z,21.20
2018-06-02T19:05:12.723Z,21.10
2018-06-02T19:07:41.029Z,21.10
2018-06-02T19:10:09.300Z,21.10
2018-06-02T19:12:39.166Z,21.10
2018-06-02T19:15:06.662Z,21.10
2018-06-02T19:17:35.509Z,21.00
2018-06-02T19:20:04.702Z,20.90
2018-06-02T19:22:33.573Z,21.00
2018-06-02T19:25:01.900Z,20.90
2018-06-02T19:27:31.023Z,20.90
2018-06-02T19:29:59.282Z,20.90
2018-06-02T19:32:27.580Z,20.90
2018-06-02T19:34:55.850Z,20.90
2018-06-02T19:37:24.167Z,20.80
2018-06-02T19:39:52.443Z,20.80
2018-06-02T19:42:20.755Z,20.70
2018-06-02T19:44:49.027Z,20.70
2018-06-02T19:47:17.322Z,20.70
2018-06-02T19:49:45.625Z,20.70
2018-06-02T19:52:13.919Z,20.70
2018-06-02T19:54:42.184Z,20.70
2018-06-02T19:57:10.481Z,20.60
2018-06-02T19:59:39.864Z,20.60
2018-06-02T20:02:08.132Z,20.60
2018-06-02T20:04:36.434Z,20.50
2018-06-02T20:07:05.598Z,20.50
2018-06-02T20:09:35.186Z,20.60
2018-06-02T20:12:04.158Z,20.50
2018-06-02T20:14:33.074Z,20.40
2018-06-02T20:17:01.379Z,20.40
2018-06-02T20:19:29.647Z,20.40
2018-06-02T20:21:57.972Z,20.30
2018-06-02T20:24:26.228Z,20.30
2018-06-02T20:26:54.514Z,20.30
2018-06-02T20:29:22.782Z,20.40
2018-06-02T20:31:50.321Z,20.40
2018-06-02T20:34:18.610Z,20.20
2018-06-02T20:36:46.873Z,20.10
2018-06-02T20:39:15.170Z,19.90
2018-06-02T20:41:43.474Z,20.00
2018-06-02T20:44:11.767Z,20.00
2018-06-02T20:46:39.265Z,19.90
2018-06-02T20:49:08.563Z,19.90
2018-06-02T20:51:36.835Z,19.90
2018-06-02T20:54:04.402Z,19.90
2018-06-02T20:56:33.150Z,19.90
2018-06-02T20:59:01.455Z,19.90
2018-06-02T21:01:29.753Z,19.80
2018-06-02T21:03:57.266Z,19.70
2018-06-02T21:06:25.562Z,19.70
2018-06-02T21:08:53.908Z,19.70
2018-06-02T21:11:22.146Z,19.70
2018-06-02T21:13:50.445Z,19.80
2018-06-02T21:16:17.941Z,19.80
2018-06-02T21:18:46.246Z,19.80
2018-06-02T21:21:14.515Z,19.80
2018-06-02T21:23:42.826Z,19.70
2018-06-02T21:26:11.084Z,19.70
2018-06-02T21:28:39.797Z,19.70
2018-06-02T21:31:08.099Z,19.70
2018-06-02T21:33:36.379Z,19.60
2018-06-02T21:36:04.675Z,19.60
2018-06-02T21:38:33.747Z,19.50
2018-06-02T21:41:02.803Z,19.50
2018-06-02T21:43:31.057Z,19.40
2018-06-02T21:45:58.598Z,19.40
2018-06-02T21:48:26.871Z,19.40
2018-06-02T21:50:55.141Z,19.40
2018-06-02T21:53:23.441Z,19.40
2018-06-02T21:55:51.698Z,19.40
2018-06-02T21:58:19.999Z,19.40
2018-06-02T22:00:48.261Z,19.40
2018-06-02T22:03:16.582Z,19.30
2018-06-02T22:05:44.854Z,19.30
2018-06-02T22:08:13.117Z,19.30
2018-06-02T22:10:41.416Z,19.30
2018-06-02T22:13:12.737Z,19.30
2018-06-02T22:15:41.030Z,19.30
2018-06-02T22:18:09.303Z,19.30
2018-06-02T22:20:38.706Z,19.30
2018-06-02T22:23:08.211Z,19.30
2018-06-02T22:25:36.563Z,19.20
2018-06-02T22:28:04.836Z,19.30
2018-06-02T22:30:33.105Z,19.20
2018-06-02T22:33:01.405Z,19.20
2018-06-02T22:35:29.674Z,19.10
2018-06-02T22:37:57.965Z,19.10
2018-06-02T22:40:26.230Z,19.00
2018-06-02T22:42:54.541Z,18.90
2018-06-02T22:45:22.809Z,18.90
2018-06-02T22:47:51.118Z,18.90
2018-06-02T22:50:19.409Z,18.90
2018-06-02T22:52:47.720Z,18.90
2018-06-02T22:55:15.992Z,18.90
2018-06-02T22:57:44.294Z,19.00
2018-06-02T23:00:21.497Z,19.00
2018-06-02T23:02:49.763Z,19.00
2018-06-02T23:05:18.047Z,19.10
2018-06-02T23:07:46.348Z,19.10
2018-06-02T23:10:14.642Z,19.10
2018-06-02T23:12:42.937Z,19.00
2018-06-02T23:15:11.241Z,19.00
2018-06-02T23:17:39.514Z,19.00
2018-06-02T23:20:08.693Z,19.00
2018-06-02T23:22:40.171Z,19.00
2018-06-02T23:25:09.614Z,19.00
2018-06-02T23:27:38.785Z,19.00
2018-06-02T23:30:07.740Z,19.00
2018-06-02T23:32:36.038Z,19.00
2018-06-02T23:35:04.305Z,19.00
2018-06-02T23:37:31.910Z,19.00
2018-06-02T23:40:00.183Z,18.90
2018-06-02T23:42:28.455Z,18.90
2018-06-02T23:44:56.735Z,18.80
2018-06-02T23:47:25.003Z,18.80
2018-06-02T23:49:53.308Z,18.80
2018-06-02T23:52:21.577Z,18.80
2018-06-02T23:54:52.799Z,18.70
2018-06-02T23:57:21.060Z,18.70
2018-06-02T23:59:49.367Z,18.60
